Time;durP1;ratioP1;P1;durP2;ratioP2;P2;SDS_P1;SDS_P2;PMS_P1;PMS_P2;Temp;Humidity;BMP_temperature;BMP_pressure;BME280_temperature;BME280_humidity;BME280_pressure;Samples;Min_cycle;Max_cycle;Signal;HPM_P1;HPM_P2
2022/12/06 00:01:45;;;;;;;35.33;16.75;;;;;;;8.32;100.00;100869.19;4925215;29;20059;-73
2022/12/06 00:04:15;;;;;;;36.20;18.13;;;;;;;8.26;100.00;100870.22;4916643;29;20048;-73
2022/12/06 00:06:47;;;;;;;33.50;16.63;;;;;;;8.30;100.00;100866.72;4916520;29;20059;-73
2022/12/06 00:09:26;;;;;;;33.63;16.58;;;;;;;8.27;100.00;100861.75;4916564;29;20040;-74
2022/12/06 00:11:57;;;;;;;32.88;16.70;;;;;;;8.22;100.00;100872.63;4916496;29;20070;-73
2022/12/06 00:14:26;;;;;;;32.15;17.13;;;;;;;8.17;100.00;100872.56;4916422;29;20063;-73
2022/12/06 00:16:55;;;;;;;34.97;17.17;;;;;;;8.25;100.00;100863.13;4920233;29;20035;-74
2022/12/06 00:19:25;;;;;;;32.47;17.25;;;;;;;8.25;100.00;100863.94;4935454;29;20070;-74
2022/12/06 00:21:54;;;;;;;36.22;18.08;;;;;;;8.23;100.00;100857.91;4935359;29;20055;-73
2022/12/06 00:24:23;;;;;;;36.92;17.55;;;;;;;8.23;100.00;100860.66;4935327;29;20059;-74
2022/12/06 00:26:51;;;;;;;33.63;16.55;;;;;;;8.21;100.00;100868.25;4935459;29;20395;-73
2022/12/06 00:29:23;;;;;;;33.75;17.30;;;;;;;8.09;100.00;100864.84;4933924;29;20055;-74
2022/12/06 00:31:55;;;;;;;36.92;18.10;;;;;;;8.07;100.00;100865.94;4935148;29;20058;-73
2022/12/06 00:34:28;;;;;;;28.88;16.02;;;;;;;7.97;100.00;100867.72;4935034;29;20036;-74
2022/12/06 00:36:57;;;;;;;33.50;17.50;;;;;;;7.92;100.00;100863.03;4935232;29;20044;-73
2022/12/06 00:39:25;;;;;;;32.70;16.73;;;;;;;7.93;100.00;100856.50;4935216;29;20043;-74
2022/12/06 00:41:55;;;;;;;30.33;16.75;;;;;;;7.91;100.00;100855.91;4935029;29;20110;-73
2022/12/06 00:44:23;;;;;;;29.70;15.70;;;;;;;7.84;100.00;100858.03;4934672;29;20485;-72
2022/12/06 00:46:52;;;;;;;28.38;15.23;;;;;;;7.75;100.00;100850.31;4934997;29;20403;-73
2022/12/06 00:49:20;;;;;;;28.80;15.57;;;;;;;7.68;100.00;100846.97;4934924;29;20040;-73
2022/12/06 00:51:49;;;;;;;29.23;14.95;;;;;;;7.57;100.00;100845.19;4934942;29;20059;-74
2022/12/06 00:54:20;;;;;;;33.47;16.65;;;;;;;7.50;100.00;100843.47;4934628;29;20040;-74
2022/12/06 00:56:50;;;;;;;32.08;16.80;;;;;;;7.48;100.00;100840.16;4935025;29;20052;-74
2022/12/06 00:59:20;;;;;;;34.05;17.67;;;;;;;7.46;100.00;100838.75;4934930;29;20051;-73
2022/12/06 01:01:48;;;;;;;30.73;17.02;;;;;;;7.42;100.00;100843.09;4934326;29;20514;-73
2022/12/06 01:04:17;;;;;;;31.60;16.85;;;;;;;7.47;100.00;100843.13;4934946;29;20380;-74
2022/12/06 01:06:46;;;;;;;32.40;16.27;;;;;;;7.50;100.00;100845.38;4933631;29;20047;-73
2022/12/06 01:09:14;;;;;;;31.77;16.38;;;;;;;7.42;100.00;100835.72;4937835;29;20047;-74
2022/12/06 01:11:44;;;;;;;33.35;16.35;;;;;;;7.39;100.00;100836.25;4936200;29;20055;-73
2022/12/06 01:14:12;;;;;;;37.25;17.85;;;;;;;7.40;100.00;100827.00;4938523;29;20051;-74
2022/12/06 01:16:40;;;;;;;30.73;16.52;;;;;;;7.45;100.00;100834.41;4938569;29;20056;-74
2022/12/06 01:19:11;;;;;;;35.03;16.48;;;;;;;7.52;100.00;100835.88;4938632;29;20051;-73
2022/12/06 01:21:39;;;;;;;30.45;16.50;;;;;;;7.44;100.00;100847.22;4938454;29;20432;-73
2022/12/06 01:24:07;;;;;;;32.70;17.27;;;;;;;7.43;100.00;100852.91;4938610;29;20056;-73
2022/12/06 01:26:35;;;;;;;33.58;16.02;;;;;;;7.35;100.00;100845.97;4938457;29;20079;-73
2022/12/06 01:29:03;;;;;;;31.63;16.17;;;;;;;7.33;100.00;100859.84;4938223;29;20060;-73
2022/12/06 01:31:33;;;;;;;33.20;16.35;;;;;;;7.28;100.00;100850.78;4938532;29;20050;-73
2022/12/06 01:34:12;;;;;;;28.42;15.05;;;;;;;7.18;100.00;100843.31;4938390;29;20479;-73
2022/12/06 01:36:40;;;;;;;32.55;17.35;;;;;;;7.20;100.00;100849.31;4936460;29;20051;-74
2022/12/06 01:39:09;;;;;;;29.02;15.77;;;;;;;7.16;100.00;100848.16;4936806;29;20051;-74
2022/12/06 01:41:38;;;;;;;25.90;14.18;;;;;;;7.03;100.00;100843.91;4938258;29;20484;-73
2022/12/06 01:44:26;;;;;;;26.58;14.13;;;;;;;7.05;100.00;100847.19;4937902;29;20051;-73
2022/12/06 01:46:54;;;;;;;33.08;15.95;;;;;;;6.95;100.00;100848.69;4919042;29;20051;-74
2022/12/06 01:49:30;;;;;;;33.17;16.00;;;;;;;6.96;100.00;100834.03;4918938;29;20059;-73
2022/12/06 01:52:02;;;;;;;30.30;15.60;;;;;;;7.08;100.00;100846.69;4936071;29;20480;-73
2022/12/06 01:54:31;;;;;;;33.17;15.73;;;;;;;7.06;100.00;100840.69;4937964;29;20051;-73
2022/12/06 01:57:03;;;;;;;33.15;16.85;;;;;;;6.97;100.00;100840.28;4937885;29;20052;-73
2022/12/06 01:59:31;;;;;;;30.35;16.00;;;;;;;7.02;100.00;100847.69;4937608;29;20077;-74
2022/12/06 02:01:59;;;;;;;28.88;15.68;;;;;;;6.96;100.00;100834.03;4937754;29;20059;-74
2022/12/06 02:04:29;;;;;;;32.85;16.17;;;;;;;6.90;100.00;100832.31;4938271;29;20051;-73
2022/12/06 02:06:59;;;;;;;32.33;17.17;;;;;;;6.85;100.00;100826.78;4936660;29;20048;-73
2022/12/06 02:09:29;;;;;;;32.10;16.08;;;;;;;6.85;100.00;100826.78;4937732;29;20048;-74
2022/12/06 02:11:57;;;;;;;26.70;14.88;;;;;;;6.92;100.00;100837.47;4937176;29;20055;-74
2022/12/06 02:14:31;;;;;;;27.13;15.13;;;;;;;7.05;100.00;100836.31;4937715;29;20048;-74
2022/12/06 02:17:24;;;;;;;;;;;;;;;7.17;100.00;100831.59;4938030;29;20488;-74
2022/12/06 02:20:20;;;;;;;26.98;13.60;;;;;;;7.23;100.00;100833.31;4936424;29;19927;-73
2022/12/06 02:23:09;;;;;;;31.15;14.70;;;;;;;7.20;100.00;100830.25;4937303;29;20055;-74
2022/12/06 02:25:39;;;;;;;34.35;18.45;;;;;;;7.35;100.00;100835.09;4937459;29;20055;-73
2022/12/06 02:28:37;;;;;;;33.93;17.17;;;;;;;7.33;100.00;100831.81;4937168;29;20066;-74
2022/12/06 02:31:18;;;;;;;35.58;16.77;;;;;;;7.21;100.00;100832.75;4935981;29;20059;-73
2022/12/06 02:33:52;;;;;;;30.73;16.55;;;;;;;7.24;100.00;100829.50;4949372;29;20059;-74
2022/12/06 02:36:32;;;;;;;32.58;17.02;;;;;;;7.15;100.00;100828.31;4942519;29;20055;-74
2022/12/06 02:39:26;;;;;;;35.40;17.75;;;;;;;7.21;100.00;100830.03;4937287;29;20062;-73
2022/12/06 02:42:01;;;;;;;36.45;16.35;;;;;;;7.03;100.00;100833.84;4936772;29;20044;-73
2022/12/06 02:44:50;;;;;;;33.90;16.80;;;;;;;7.20;100.00;100822.94;4937217;29;20052;-74
2022/12/06 02:47:22;;;;;;;33.90;16.67;;;;;;;6.92;100.00;100822.00;4935410;29;20051;-74
2022/12/06 02:49:53;;;;;;;32.28;16.05;;;;;;;7.04;100.00;100818.34;4936889;29;20047;-73
2022/12/06 02:52:25;;;;;;;32.17;16.25;;;;;;;7.04;100.00;100823.78;4935733;29;20255;-73
2022/12/06 02:54:57;;;;;;;28.88;15.20;;;;;;;7.16;100.00;100820.94;4936925;29;20124;-73
2022/12/06 02:57:43;;;;;;;26.65;13.60;;;;;;;6.86;100.00;100818.34;4936820;29;20060;-74
2022/12/06 03:00:44;;;;;;;29.67;15.35;;;;;;;6.75;100.00;100821.97;4936461;29;20070;-73
2022/12/06 03:03:38;;;;;;;31.30;13.80;;;;;;;6.58;100.00;100811.97;4935588;29;20055;-74
2022/12/06 03:06:34;;;;;;;29.08;14.35;;;;;;;6.61;100.00;100816.06;4931698;29;20415;-74
2022/12/06 03:09:05;;;;;;;34.15;15.00;;;;;;;6.75;100.00;100821.19;4935350;29;20043;-73
2022/12/06 03:11:54;;;;;;;28.20;14.98;;;;;;;6.62;100.00;100822.31;4936150;29;20070;-73
2022/12/06 03:14:25;;;;;;;25.45;13.70;;;;;;;6.58;100.00;100822.84;4935388;29;20055;-73
2022/12/06 03:17:11;;;;;;;26.35;13.68;;;;;;;6.59;100.00;100816.31;4936275;29;20406;-73
2022/12/06 03:19:41;;;;;;;22.20;11.95;;;;;;;6.51;100.00;100810.47;4936428;29;20052;-74
2022/12/06 03:22:22;;;;;;;30.92;14.70;;;;;;;6.38;100.00;100812.44;4935317;29;20506;-73
2022/12/06 03:24:51;;;;;;;24.88;12.63;;;;;;;6.38;100.00;100807.00;4936410;29;20055;-73
2022/12/06 03:27:21;;;;;;;24.83;12.90;;;;;;;6.46;100.00;100808.50;4936057;29;20052;-74
2022/12/06 03:29:57;;;;;;;23.88;12.75;;;;;;;6.40;100.00;100809.47;4935931;29;20051;-73
2022/12/06 03:32:31;;;;;;;28.27;13.23;;;;;;;6.43;100.00;100807.09;4916899;29;20403;-73
2022/12/06 03:35:04;;;;;;;26.95;13.57;;;;;;;6.32;100.00;100800.63;4917239;29;20044;-74
2022/12/06 03:37:37;;;;;;;22.93;12.80;;;;;;;6.32;100.00;100808.00;4930315;29;20051;-73
2022/12/06 03:40:25;;;;;;;22.15;12.68;;;;;;;6.41;100.00;100806.50;4936159;29;20059;-73
2022/12/06 03:42:54;;;;;;;22.90;12.32;;;;;;;6.35;100.00;100802.03;4936160;29;20395;-73
2022/12/06 03:45:31;;;;;;;25.33;13.50;;;;;;;6.44;100.00;100808.75;4936099;29;20059;-73
2022/12/06 03:48:08;;;;;;;25.00;12.70;;;;;;;6.43;100.00;100807.09;4935893;29;20055;-73
2022/12/06 03:50:49;;;;;;;24.63;13.13;;;;;;;6.48;100.00;100810.94;4935797;29;20048;-73
2022/12/06 03:53:24;;;;;;;26.42;12.40;;;;;;;6.48;100.00;100805.50;4934475;29;20068;-73
2022/12/06 03:55:53;;;;;;;27.67;15.02;;;;;;;6.41;100.00;100809.22;4935728;29;20047;-73
2022/12/06 03:58:20;;;;;;;31.75;14.90;;;;;;;6.39;100.00;100795.06;4935659;29;20051;-73
2022/12/06 04:00:48;;;;;;;26.38;13.98;;;;;;;6.27;100.00;100794.31;4935575;29;20051;-73
2022/12/06 04:03:16;;;;;;;31.45;15.13;;;;;;;6.21;100.00;100806.97;4935177;29;20039;-73
2022/12/06 04:05:44;;;;;;;29.88;15.07;;;;;;;6.28;100.00;100793.22;4935548;29;20070;-73
2022/12/06 04:08:12;;;;;;;28.92;13.77;;;;;;;6.31;100.00;100806.34;4934164;29;20081;-74
2022/12/06 04:10:40;;;;;;;26.52;14.85;;;;;;;6.21;100.00;100798.00;4934435;29;20071;-73
2022/12/06 04:13:08;;;;;;;28.33;13.18;;;;;;;6.10;100.00;100788.88;4915283;29;20514;-72
2022/12/06 04:15:38;;;;;;;26.75;13.23;;;;;;;6.10;100.00;100792.38;4929304;29;20056;-72
2022/12/06 04:18:12;;;;;;;23.42;12.50;;;;;;;5.98;100.00;100794.31;4924698;29;20054;-72
2022/12/06 04:23:49;;;;;;;25.15;12.27;;;;;;;6.15;100.00;100789.75;4916424;29;20522;-73
2022/12/06 04:26:20;;;;;;;30.75;11.48;;;;;;;6.16;100.00;100788.69;4916337;29;20059;-73
2022/12/06 04:39:58;;;;;;;29.67;11.27;;;;;;;6.04;100.00;100785.22;4935137;29;20059;-73
2022/12/06 04:45:13;;;;;;;22.63;12.18;;;;;;;6.14;100.00;100790.00;4934979;29;20387;-73
2022/12/06 04:47:41;;;;;;;26.75;11.02;;;;;;;6.21;100.00;100781.69;4935055;29;20055;-73
2022/12/06 04:50:09;;;;;;;25.52;10.98;;;;;;;6.26;100.00;100795.38;4933579;29;20047;-73
2022/12/06 04:52:37;;;;;;;16.77;10.38;;;;;;;6.14;100.00;100793.56;4935074;29;20058;-73
2022/12/06 04:55:05;;;;;;;20.70;11.10;;;;;;;6.26;100.00;100798.09;4933486;29;20052;-72
2022/12/06 04:57:33;;;;;;;18.60;10.27;;;;;;;6.23;100.00;100804.84;4934680;29;20055;-73
2022/12/06 05:00:01;;;;;;;23.27;11.38;;;;;;;6.27;100.00;100797.03;4934839;29;20055;-73
2022/12/06 05:02:29;;;;;;;23.58;11.52;;;;;;;5.97;100.00;100789.94;4934762;29;20510;-73
2022/12/06 05:04:57;;;;;;;21.60;11.20;;;;;;;6.10;100.00;100794.28;4933809;29;20055;-73
2022/12/06 05:07:25;;;;;;;24.30;11.20;;;;;;;5.85;100.00;100793.53;4934855;29;20406;-72
2022/12/06 05:09:53;;;;;;;25.33;11.32;;;;;;;5.81;100.00;100786.94;4934516;29;20052;-73
2022/12/06 05:12:21;;;;;;;21.75;11.73;;;;;;;5.91;100.00;100792.56;4932030;29;20047;-73
2022/12/06 05:14:49;;;;;;;21.85;10.52;;;;;;;5.55;100.00;100788.34;4934878;29;20056;-73
2022/12/06 05:17:17;;;;;;;24.20;10.63;;;;;;;5.57;100.00;100787.03;4934703;29;20419;-74
2022/12/06 05:19:45;;;;;;;28.13;11.25;;;;;;;5.72;100.00;100799.28;4934712;29;20052;-74
2022/12/06 05:22:13;;;;;;;27.38;11.48;;;;;;;5.39;100.00;100801.59;4934865;29;20056;-74
2022/12/06 05:24:41;;;;;;;24.00;11.00;;;;;;;5.51;100.00;100798.84;4933615;29;20044;-74
2022/12/06 05:27:09;;;;;;;30.88;11.63;;;;;;;5.40;100.00;100794.28;4934740;29;20047;-73
2022/12/06 05:29:37;;;;;;;30.95;11.30;;;;;;;5.50;100.00;100797.19;4933451;29;20052;-73
2022/12/06 05:32:05;;;;;;;25.45;12.15;;;;;;;5.72;100.00;100800.06;4934641;29;20040;-73
2022/12/06 05:34:33;;;;;;;34.67;12.63;;;;;;;5.68;100.00;100798.94;4934724;29;20063;-73
2022/12/06 05:37:00;;;;;;;29.52;13.02;;;;;;;5.96;100.00;100793.75;4934228;29;20056;-74
2022/12/06 05:39:28;;;;;;;23.77;11.43;;;;;;;5.88;100.00;100798.47;4934561;29;20063;-74
2022/12/06 05:41:56;;;;;;;29.92;12.80;;;;;;;5.68;100.00;100795.38;4934552;29;20484;-74
2022/12/06 05:44:24;;;;;;;29.02;13.27;;;;;;;5.75;100.00;100799.59;4934583;29;20048;-74
2022/12/06 05:46:52;;;;;;;33.33;15.63;;;;;;;5.75;100.00;100798.78;4934492;29;20047;-73
2022/12/06 05:49:20;;;;;;;25.48;12.00;;;;;;;5.62;100.00;100803.41;4932740;29;20051;-74
2022/12/06 05:51:48;;;;;;;38.20;11.10;;;;;;;5.63;100.00;100806.97;4916737;29;20055;-73
2022/12/06 05:54:17;;;;;;;23.55;11.95;;;;;;;5.54;100.00;100811.97;4916940;29;20052;-74
2022/12/06 05:56:48;;;;;;;30.60;13.40;;;;;;;5.68;100.00;100803.53;4929981;29;20509;-73
2022/12/06 05:59:16;;;;;;;40.95;13.13;;;;;;;5.47;100.00;100811.28;4934958;29;20043;-74
2022/12/06 06:01:44;;;;;;;31.58;12.52;;;;;;;5.44;100.00;100801.72;4936192;29;20047;-74
2022/12/06 06:04:12;;;;;;;24.98;12.45;;;;;;;5.36;100.00;100805.63;4934869;29;20043;-75
2022/12/06 06:06:40;;;;;;;32.53;12.77;;;;;;;5.54;100.00;100809.25;4936141;29;20521;-75
2022/12/06 06:09:08;;;;;;;26.80;14.65;;;;;;;5.65;100.00;100811.09;4937535;29;20043;-75
2022/12/06 06:11:36;;;;;;;33.22;14.93;;;;;;;5.63;100.00;100812.41;4935550;29;20059;-74
2022/12/06 06:14:04;;;;;;;30.42;13.38;;;;;;;5.61;100.00;100822.66;4934886;29;20056;-75
2022/12/06 06:16:33;;;;;;;33.25;14.27;;;;;;;5.52;100.00;100822.22;4936912;29;20068;-74
2022/12/06 06:19:04;;;;;;;29.65;13.52;;;;;;;5.49;100.00;100814.56;4934794;29;20047;-74
2022/12/06 06:21:33;;;;;;;32.80;14.13;;;;;;;5.39;100.00;100815.19;4919514;29;20059;-74
2022/12/06 06:24:01;;;;;;;31.92;14.20;;;;;;;5.70;100.00;100814.97;4929072;29;20399;-75
2022/12/06 06:26:29;;;;;;;31.85;14.63;;;;;;;5.55;100.00;100810.88;4925413;29;20044;-75
2022/12/06 06:28:57;;;;;;;26.52;12.93;;;;;;;5.46;100.00;100815.03;4935541;29;20055;-75
2022/12/06 06:31:25;;;;;;;27.25;12.90;;;;;;;5.27;100.00;100808.94;4924716;29;20391;-76
2022/12/06 06:33:53;;;;;;;28.52;11.98;;;;;;;5.54;100.00;100813.84;4935282;29;20073;-76
2022/12/06 06:36:21;;;;;;;27.58;12.25;;;;;;;5.27;100.00;100820.63;4925382;29;20051;-76
2022/12/06 06:38:49;;;;;;;31.98;13.82;;;;;;;5.35;100.00;100828.41;4927107;29;20055;-76
2022/12/06 06:41:17;;;;;;;26.38;12.80;;;;;;;5.43;100.00;100829.09;4931964;29;20391;-76
2022/12/06 06:43:45;;;;;;;26.35;13.18;;;;;;;5.41;100.00;100842.06;4929811;29;20071;-77
2022/12/06 06:46:13;;;;;;;27.02;12.77;;;;;;;5.49;100.00;100828.13;4928517;29;20071;-74
2022/12/06 06:48:41;;;;;;;27.23;12.52;;;;;;;5.40;100.00;100840.41;4915961;29;20055;-75
2022/12/06 06:51:12;;;;;;;27.73;12.65;;;;;;;5.55;100.00;100843.47;4928051;29;20044;-77
2022/12/06 06:53:40;;;;;;;26.27;12.43;;;;;;;5.47;100.00;100846.56;4941160;28;20498;-74
2022/12/06 06:56:10;;;;;;;23.88;12.05;;;;;;;5.53;100.00;100845.59;4920973;29;20052;-73
2022/12/06 06:58:38;;;;;;;28.52;13.15;;;;;;;5.73;100.00;100855.22;4929902;29;20048;-73
2022/12/06 07:01:07;;;;;;;30.50;14.15;;;;;;;5.72;100.00;100857.09;4934125;29;20050;-74
2022/12/06 07:03:35;;;;;;;42.88;16.48;;;;;;;5.61;100.00;100858.78;4935423;29;20499;-72
2022/12/06 07:06:08;;;;;;;45.88;17.50;;;;;;;5.46;100.00;100850.31;4935207;29;20054;-75
2022/12/06 07:08:36;;;;;;;43.22;17.38;;;;;;;5.61;100.00;100856.09;4935953;29;20090;-73
2022/12/06 07:11:05;;;;;;;44.17;17.77;;;;;;;5.38;100.00;100863.19;4934315;29;20062;-75
2022/12/06 07:13:35;;;;;;;39.60;16.67;;;;;;;5.32;100.00;100876.91;4935280;29;20055;-74
2022/12/06 07:16:05;;;;;;;38.17;15.05;;;;;;;5.09;100.00;100889.41;4935988;29;20047;-73
2022/12/06 07:18:33;;;;;;;37.47;14.27;;;;;;;4.75;100.00;100887.25;4934997;29;20505;-76
2022/12/06 07:21:05;;;;;;;36.28;14.60;;;;;;;4.87;100.00;100875.56;4933855;29;20044;-76
2022/12/06 07:23:34;;;;;;;42.45;15.63;;;;;;;5.14;100.00;100870.53;4933925;29;20055;-75
2022/12/06 07:26:13;;;;;;;36.60;15.20;;;;;;;5.25;100.00;100877.03;4935562;29;20044;-75
2022/12/06 07:28:43;;;;;;;36.75;16.45;;;;;;;5.42;100.00;100873.59;4935167;29;20063;-77
2022/12/06 07:31:14;;;;;;;41.30;16.75;;;;;;;5.49;100.00;100877.00;4934921;29;20044;-74
2022/12/06 07:33:43;;;;;;;44.40;17.35;;;;;;;5.56;100.00;100866.81;4934816;29;20243;-79
2022/12/06 07:36:13;;;;;;;45.15;18.50;;;;;;;5.77;100.00;100880.84;4932144;29;20059;-73
2022/12/06 07:38:45;;;;;;;40.33;16.05;;;;;;;5.76;100.00;100882.72;4933834;29;20056;-74
2022/12/06 07:46:49;;;;;;;37.05;17.75;;;;;;;5.87;100.00;100881.03;4931143;29;20048;-75
2022/12/06 07:49:17;;;;;;;37.63;17.13;;;;;;;5.84;100.00;100889.69;4931028;29;20048;-74
2022/12/06 07:51:46;;;;;;;36.15;16.88;;;;;;;5.92;100.00;100877.63;4934459;29;20067;-74
2022/12/06 07:54:18;;;;;;;37.53;15.95;;;;;;;5.82;100.00;100882.84;4932465;29;20051;-74
2022/12/06 07:56:47;;;;;;;37.25;16.13;;;;;;;5.82;100.00;100885.56;4935149;29;20055;-74
2022/12/06 07:59:15;;;;;;;40.10;16.38;;;;;;;5.73;100.00;100893.25;4933359;29;20063;-74
2022/12/06 08:01:43;;;;;;;40.35;16.80;;;;;;;5.85;100.00;100888.59;4933131;29;20395;-74
2022/12/06 08:04:11;;;;;;;35.03;16.35;;;;;;;5.76;100.00;100890.88;4933592;29;20048;-74
2022/12/06 08:06:39;;;;;;;34.08;15.85;;;;;;;6.04;100.00;100893.88;4934900;29;20078;-77
2022/12/06 08:09:08;;;;;;;36.15;15.80;;;;;;;6.05;100.00;100895.53;4933514;29;20047;-78
2022/12/06 08:11:35;;;;;;;32.08;14.52;;;;;;;6.00;100.00;100898.97;4934812;29;20510;-77
2022/12/06 08:14:04;;;;;;;32.03;14.75;;;;;;;5.82;100.00;100901.84;4932564;29;20380;-78
2022/12/06 08:16:32;;;;;;;36.17;16.15;;;;;;;5.87;100.00;100900.03;4934772;29;20055;-77
2022/12/06 08:19:00;;;;;;;39.00;17.42;;;;;;;6.05;100.00;100900.97;4934732;29;20048;-73
2022/12/06 08:21:28;;;;;;;34.78;15.02;;;;;;;5.79;100.00;100909.38;4934551;29;20055;-74
2022/12/06 08:23:56;;;;;;;34.63;15.88;;;;;;;6.05;100.00;100911.84;4932474;29;20059;-80
2022/12/06 08:26:25;;;;;;;36.55;16.52;;;;;;;6.39;100.00;100909.22;4934040;29;20048;-78
2022/12/06 08:28:53;;;;;;;35.40;15.85;;;;;;;6.20;100.00;100902.34;4932568;29;20047;-78
2022/12/06 08:31:22;;;;;;;34.90;15.93;;;;;;;6.57;100.00;100908.22;4934385;29;20388;-79
2022/12/06 08:33:51;;;;;;;26.95;14.32;;;;;;;6.38;100.00;100912.19;4932382;29;20050;-72
2022/12/06 08:36:21;;;;;;;33.25;16.52;;;;;;;6.32;100.00;100901.22;4933602;29;20116;-75
2022/12/06 08:38:50;;;;;;;30.98;13.43;;;;;;;6.48;100.00;100900.66;4932958;29;20043;-75
2022/12/06 08:44:08;;;;;;;33.40;14.18;;;;;;;6.60;100.00;100923.19;4932503;29;20058;-73
2022/12/06 08:46:36;;;;;;;31.95;13.63;;;;;;;6.31;100.00;100915.06;4934504;29;20051;-73
2022/12/06 08:49:05;;;;;;;31.23;14.05;;;;;;;6.57;99.57;100913.66;4932501;29;20044;-74
2022/12/06 08:51:34;;;;;;;31.70;14.80;;;;;;;6.23;100.00;100920.88;4934319;29;20051;-74
2022/12/06 08:54:02;;;;;;;32.90;15.15;;;;;;;6.29;100.00;100922.63;4931472;29;20047;-74
2022/12/06 08:56:31;;;;;;;32.83;14.20;;;;;;;6.66;100.00;100915.97;4933895;29;20044;-75
2022/12/06 08:58:59;;;;;;;35.03;15.45;;;;;;;6.88;99.98;100907.88;4932504;29;20054;-78
2022/12/06 09:01:29;;;;;;;29.42;14.57;;;;;;;6.86;98.98;100912.75;4934151;29;20063;-75
2022/12/06 09:04:06;;;;;;;32.28;14.55;;;;;;;6.94;99.29;100917.78;4915187;29;20056;-73
2022/12/06 09:06:39;;;;;;;28.65;13.57;;;;;;;7.30;98.89;100914.81;4914212;29;20048;-73
2022/12/06 09:09:09;;;;;;;28.40;13.40;;;;;;;7.30;98.58;100920.25;4913508;29;20502;-75
2022/12/06 09:11:38;;;;;;;31.00;14.93;;;;;;;7.22;97.64;100929.66;4915078;29;20408;-75
2022/12/06 09:14:08;;;;;;;28.80;13.13;;;;;;;7.17;98.43;100926.84;4915564;29;20052;-74
2022/12/06 09:16:36;;;;;;;29.55;14.05;;;;;;;6.98;96.05;100935.28;4933470;29;20051;-75
2022/12/06 09:19:04;;;;;;;29.35;13.55;;;;;;;6.95;97.66;100940.38;4934064;29;20063;-74
2022/12/06 09:21:33;;;;;;;28.33;13.65;;;;;;;7.09;97.71;100935.44;4933222;29;20059;-70
2022/12/06 09:24:01;;;;;;;32.20;14.48;;;;;;;7.09;98.28;100935.44;4932384;29;20403;-73
2022/12/06 09:26:31;;;;;;;33.17;16.23;;;;;;;6.87;100.00;100928.00;4933189;29;20056;-73
2022/12/06 09:28:59;;;;;;;32.58;15.60;;;;;;;6.94;98.29;100931.38;4934912;29;20044;-73
2022/12/06 09:31:27;;;;;;;39.25;15.40;;;;;;;7.21;99.39;100936.19;4936929;29;20484;-71
2022/12/06 09:33:55;;;;;;;34.70;15.60;;;;;;;7.58;97.21;100942.16;4936251;29;20051;-72
2022/12/06 09:36:29;;;;;;;33.17;15.27;;;;;;;7.16;98.34;100930.66;4923960;29;20056;-73
2022/12/06 09:39:08;;;;;;;33.03;14.52;;;;;;;7.36;96.88;100945.66;4918378;29;20052;-73
2022/12/06 09:41:39;;;;;;;35.55;15.93;;;;;;;7.63;95.44;100928.63;4932535;29;20051;-72
2022/12/06 09:44:14;;;;;;;33.40;15.60;;;;;;;7.76;94.18;100939.13;4935526;29;20055;-72
2022/12/06 09:47:12;;;;;;;33.40;14.95;;;;;;;7.66;95.75;100937.09;4936790;29;20051;-72
2022/12/06 09:50:01;;;;;;;32.58;15.27;;;;;;;7.50;97.54;100933.34;4925444;29;20047;-74
2022/12/06 09:53:18;;;;;;;37.65;16.58;;;;;;;7.89;94.91;100937.13;4936947;29;20067;-71
2022/12/06 09:56:13;;;;;;;39.17;16.92;;;;;;;8.09;95.58;100924.81;4935949;29;20500;-73
2022/12/06 09:59:05;;;;;;;38.47;17.85;;;;;;;8.26;93.63;100928.28;4936475;29;20063;-73
2022/12/06 10:01:45;;;;;;;36.15;15.52;;;;;;;8.20;92.93;100918.41;4935241;29;20056;-72
2022/12/06 10:04:40;;;;;;;34.15;15.90;;;;;;;7.99;95.11;100917.34;4936422;29;20051;-71
2022/12/06 10:07:29;;;;;;;33.20;16.08;;;;;;;7.93;93.92;100917.28;4936698;29;20051;-72
2022/12/06 10:10:06;;;;;;;32.95;14.00;;;;;;;7.89;93.19;100915.31;4936655;29;20047;-72
2022/12/06 10:12:57;;;;;;;30.08;14.15;;;;;;;7.73;94.38;100911.56;4937235;29;20055;-73
2022/12/06 10:16:09;;;;;;;34.45;14.15;;;;;;;8.36;92.12;100913.94;4937144;29;20052;-73
2022/12/06 10:18:54;;;;;;;34.30;14.32;;;;;;;8.70;89.35;100908.28;4937093;29;20047;-73
2022/12/06 10:21:40;;;;;;;;;;;;;;;8.27;91.11;100910.84;4921270;29;20071;-73
2022/12/06 10:24:11;;;;;;;30.15;13.75;;;;;;;8.48;91.32;100905.59;4937257;29;19934;-72
2022/12/06 10:26:50;;;;;;;31.63;14.38;;;;;;;8.27;91.97;100910.84;4935543;29;20052;-71
2022/12/06 10:29:38;;;;;;;27.00;13.05;;;;;;;8.50;90.76;100902.63;4936581;29;20052;-72
2022/12/06 10:32:27;;;;;;;28.33;13.85;;;;;;;8.16;91.29;100903.66;4936149;29;20055;-73
2022/12/06 10:35:00;;;;;;;29.33;13.25;;;;;;;8.39;91.95;100904.41;4955672;29;20058;-75
2022/12/06 10:37:55;;;;;;;32.33;12.80;;;;;;;8.02;91.25;100893.13;4947744;29;20043;-72
2022/12/06 10:40:45;;;;;;;31.08;13.98;;;;;;;7.94;91.88;100890.84;4931329;29;20062;-73
2022/12/06 10:43:18;;;;;;;29.27;12.88;;;;;;;7.74;94.38;100875.09;4933999;29;20060;-75
2022/12/06 10:49:20;;;;;;;28.65;13.32;;;;;;;8.23;93.04;100887.06;4927834;29;20052;-74
2022/12/06 10:51:57;;;;;;;30.73;14.13;;;;;;;8.42;91.95;100876.63;4927886;29;20040;-73
2022/12/06 10:54:45;;;;;;;29.92;14.27;;;;;;;8.48;91.42;100878.34;4915732;29;20049;-74
2022/12/06 10:57:48;;;;;;;38.80;16.05;;;;;;;8.44;91.72;100880.75;4934480;29;20074;-75
2022/12/06 11:00:18;;;;;;;32.25;14.25;;;;;;;8.39;91.46;100879.88;4923729;29;20402;-76
2022/12/06 11:03:08;;;;;;;29.85;13.25;;;;;;;8.36;91.51;100870.28;4936364;29;20418;-74
2022/12/06 11:05:45;;;;;;;32.88;14.82;;;;;;;8.57;90.72;100865.88;4926147;29;20052;-73
2022/12/06 11:08:43;;;;;;;31.50;14.50;;;;;;;8.29;92.47;100867.78;4925421;29;20055;-72
2022/12/06 11:11:15;;;;;;;34.45;15.15;;;;;;;8.55;92.86;100873.50;4935908;29;20055;-73
2022/12/06 11:13:50;;;;;;;34.25;14.32;;;;;;;8.57;92.79;100863.16;4935638;29;20059;-71
2022/12/06 11:16:23;;;;;;;37.00;14.77;;;;;;;9.00;92.44;100868.69;4935645;29;20051;-73
2022/12/06 11:18:55;;;;;;;29.60;15.18;;;;;;;9.35;89.59;100868.34;4933761;29;20495;-73
2022/12/06 11:21:31;;;;;;;31.33;14.70;;;;;;;9.46;87.28;100864.59;4936019;29;20059;-73
2022/12/06 11:24:24;;;;;;;31.88;14.90;;;;;;;9.52;87.24;100865.44;4934920;29;20052;-73
2022/12/06 11:27:15;;;;;;;31.27;14.68;;;;;;;10.01;87.33;100857.97;4931412;29;20047;-73
2022/12/06 11:29:46;;;;;;;34.97;14.43;;;;;;;10.11;86.64;100865.41;4935543;29;20059;-74
2022/12/06 11:32:15;;;;;;;29.13;13.32;;;;;;;10.15;86.55;100861.00;4935693;29;20411;-74
2022/12/06 11:34:47;;;;;;;29.02;13.45;;;;;;;10.27;85.95;100858.03;4935295;29;20055;-73
2022/12/06 11:37:26;;;;;;;25.85;12.68;;;;;;;10.24;84.70;100861.31;4932417;29;20071;-73
2022/12/06 11:40:04;;;;;;;28.75;12.50;;;;;;;10.43;84.21;100858.91;4932535;29;20052;-74
2022/12/06 11:42:32;;;;;;;28.17;12.80;;;;;;;10.40;84.95;100853.97;4922690;29;20049;-73
2022/12/06 11:45:06;;;;;;;32.70;14.57;;;;;;;10.57;83.65;100854.53;4923528;29;20039;-72
2022/12/06 11:47:34;;;;;;;30.92;13.18;;;;;;;10.50;83.60;100850.44;4934030;29;20044;-73
2022/12/06 11:50:15;;;;;;;32.47;14.70;;;;;;;10.53;84.34;100841.66;4934889;29;20544;-71
2022/12/06 11:52:56;;;;;;;32.53;13.90;;;;;;;10.60;83.39;100834.00;4934994;29;20059;-71
2022/12/06 11:55:28;;;;;;;24.30;11.75;;;;;;;10.77;84.63;100836.47;4935187;29;20063;-72
2022/12/06 11:58:17;;;;;;;23.33;11.48;;;;;;;10.34;84.48;100847.66;4933863;29;20051;-72
2022/12/06 12:01:00;;;;;;;27.05;12.15;;;;;;;10.37;84.54;100838.91;4934819;29;20062;-72
2022/12/06 12:03:31;;;;;;;24.42;12.38;;;;;;;10.53;85.80;100828.81;4929152;29;20484;-71
2022/12/06 12:06:26;;;;;;;22.23;11.05;;;;;;;10.55;83.07;100826.63;4930504;28;20055;-73
2022/12/06 12:08:57;;;;;;;34.45;13.98;;;;;;;10.38;84.24;100828.78;4923805;29;20055;-73